createdAt,value
2018-05-18T00:01:02.134Z,6.70
2018-05-18T00:03:31.089Z,6.10
2018-05-18T00:05:58.529Z,8.00
2018-05-18T00:08:25.957Z,6.17
2018-05-18T00:10:54.176Z,6.60
2018-05-18T00:13:21.605Z,6.40
2018-05-18T00:15:49.062Z,6.80
2018-05-18T00:18:17.697Z,7.00
2018-05-18T00:20:45.144Z,7.13
2018-05-18T00:23:12.970Z,5.33
2018-05-18T00:25:41.189Z,5.97
2018-05-18T00:28:09.013Z,6.17
2018-05-18T00:30:36.446Z,7.10
2018-05-18T00:33:04.646Z,6.27
2018-05-18T00:35:33.220Z,7.73
2018-05-18T00:38:01.061Z,7.90
2018-05-18T00:40:29.257Z,7.03
2018-05-18T00:42:57.101Z,7.13
2018-05-18T00:45:24.549Z,7.10
2018-05-18T00:47:53.364Z,7.10
2018-05-18T00:50:20.800Z,6.13
2018-05-18T00:52:49.001Z,7.20
2018-05-18T00:55:29.157Z,6.70
2018-05-18T00:57:57.948Z,9.77
2018-05-18T01:00:26.207Z,7.67
2018-05-18T01:02:53.632Z,5.80
2018-05-18T01:05:21.087Z,7.03
2018-05-18T01:07:49.303Z,6.30
2018-05-18T01:10:16.740Z,5.73
2018-05-18T01:12:44.947Z,7.70
2018-05-18T01:15:13.162Z,6.00
2018-05-18T01:17:40.598Z,6.47
2018-05-18T01:20:08.042Z,6.27
2018-05-18T01:22:36.257Z,6.50
2018-05-18T01:25:04.102Z,7.00
2018-05-18T01:27:32.314Z,5.90
2018-05-18T01:29:59.753Z,5.80
2018-05-18T01:32:27.969Z,6.70
2018-05-18T01:34:55.402Z,6.53
2018-05-18T01:37:23.982Z,5.20
2018-05-18T01:39:51.425Z,5.70
2018-05-18T01:42:18.882Z,8.13
2018-05-18T01:44:47.094Z,6.10
2018-05-18T01:47:14.557Z,5.97
2018-05-18T01:49:42.397Z,6.50
2018-05-18T01:52:09.847Z,5.60
2018-05-18T01:54:38.057Z,6.13
2018-05-18T01:57:05.904Z,5.70
2018-05-18T03:21:32.352Z,6.93
2018-05-18T03:24:00.558Z,6.30
2018-05-18T03:26:27.995Z,6.87
2018-05-18T03:28:56.201Z,6.73
2018-05-18T03:31:23.646Z,10.17
2018-05-18T03:33:51.872Z,14.30
2018-05-18T03:36:19.338Z,15.53
2018-05-18T03:38:46.783Z,19.30
2018-05-18T03:41:15.044Z,17.90
2018-05-18T03:43:42.500Z,19.43
2018-05-18T03:46:11.450Z,17.53
2018-05-18T03:48:38.910Z,24.13
2018-05-18T03:51:07.867Z,23.67
2018-05-18T03:53:35.326Z,23.03
2018-05-18T03:56:03.528Z,22.60
2018-05-18T03:58:30.973Z,21.17
2018-05-18T04:00:58.421Z,27.10
2018-05-18T04:03:37.747Z,24.57
2018-05-18T04:06:17.829Z,19.53
2018-05-18T04:08:52.213Z,21.63
2018-05-18T04:11:19.661Z,18.33
2018-05-18T04:13:47.134Z,18.20
2018-05-18T04:16:14.559Z,17.60
2018-05-18T04:18:42.779Z,16.70
2018-05-18T04:21:11.371Z,17.33
2018-05-18T04:23:38.808Z,14.93
2018-05-18T04:26:06.254Z,17.27
2018-05-18T04:28:34.487Z,16.07
2018-05-18T04:31:01.925Z,16.17
2018-05-18T04:33:29.382Z,17.73
2018-05-18T04:35:56.824Z,19.10
2018-05-18T04:38:24.546Z,18.40
2018-05-18T04:40:51.986Z,14.30
2018-05-18T04:43:20.236Z,14.20
2018-05-18T04:45:47.662Z,12.90
2018-05-18T04:48:15.105Z,11.20
2018-05-18T04:50:43.302Z,9.57
2018-05-18T04:53:11.506Z,7.30
2018-05-18T04:55:38.941Z,8.03
2018-05-18T04:58:07.736Z,9.10
2018-05-18T05:00:35.948Z,7.97
2018-05-18T05:03:03.388Z,8.27
2018-05-18T05:05:30.919Z,8.17
2018-05-18T05:07:58.271Z,7.73
2018-05-18T05:10:25.712Z,6.10
2018-05-18T05:12:53.172Z,6.27
2018-05-18T05:15:21.381Z,7.67
2018-05-18T05:17:49.236Z,5.67
2018-05-18T05:20:17.429Z,6.97
2018-05-18T05:22:45.276Z,6.20
2018-05-18T05:25:12.714Z,7.50
2018-05-18T05:27:40.151Z,6.70
2018-05-18T05:30:07.616Z,5.50
2018-05-18T05:32:35.071Z,6.60
2018-05-18T05:35:03.654Z,7.53
2018-05-18T05:37:32.239Z,6.40
2018-05-18T05:39:59.682Z,7.50
2018-05-18T05:42:27.135Z,7.70
2018-05-18T05:44:54.609Z,7.57
2018-05-18T05:47:22.057Z,8.03
2018-05-18T05:49:49.511Z,9.37
2018-05-18T05:52:16.969Z,9.90
2018-05-18T05:54:45.185Z,10.20
2018-05-18T05:57:12.629Z,10.23
2018-05-18T05:59:40.116Z,9.53
2018-05-18T06:02:07.949Z,9.90
2018-05-18T06:04:35.808Z,10.63
2018-05-18T06:07:04.021Z,10.33
2018-05-18T06:09:32.981Z,12.37
2018-05-18T06:12:01.931Z,10.67
2018-05-18T06:14:30.229Z,9.13
2018-05-18T06:16:57.685Z,9.67
2018-05-18T06:19:25.616Z,8.80
2018-05-18T06:21:53.014Z,9.73
2018-05-18T06:24:20.857Z,10.10
2018-05-18T06:26:48.293Z,9.07
2018-05-18T06:29:16.135Z,10.70
2018-05-18T06:31:43.565Z,11.67
2018-05-18T06:34:12.166Z,11.17
2018-05-18T06:36:40.004Z,14.00
2018-05-18T06:39:07.871Z,15.57
2018-05-18T06:41:36.071Z,13.20
2018-05-18T06:44:03.522Z,14.13
2018-05-18T06:46:31.729Z,13.10
2018-05-18T06:48:59.165Z,14.00
2018-05-18T06:51:27.394Z,17.50
2018-05-18T06:53:55.279Z,12.20
2018-05-18T06:56:22.725Z,15.50
2018-05-18T06:58:50.190Z,14.83
2018-05-18T07:01:18.394Z,18.53
2018-05-18T07:03:46.623Z,18.60
2018-05-18T07:06:14.069Z,18.97
2018-05-18T07:08:41.525Z,18.77
2018-05-18T07:11:08.988Z,17.00
2018-05-18T07:13:36.442Z,18.70
2018-05-18T07:16:03.897Z,19.70
2018-05-18T07:18:31.363Z,22.17
2018-05-18T07:20:58.814Z,23.97
2018-05-18T07:23:27.033Z,22.83
2018-05-18T07:25:54.482Z,21.33
2018-05-18T07:28:22.326Z,25.70
2018-05-18T07:30:49.773Z,25.77
2018-05-18T07:33:17.229Z,28.00
2018-05-18T07:35:46.044Z,26.97
2018-05-18T07:38:13.493Z,27.17
2018-05-18T07:40:41.350Z,27.07
2018-05-18T07:43:08.802Z,24.40
2018-05-18T07:45:37.031Z,25.30
2018-05-18T07:48:04.860Z,24.43
2018-05-18T07:50:32.711Z,24.10
2018-05-18T07:53:00.176Z,24.43
2018-05-18T07:55:27.629Z,23.13
2018-05-18T07:57:55.078Z,22.10
2018-05-18T08:00:22.524Z,22.97
2018-05-18T08:02:49.994Z,21.27
2018-05-18T08:05:17.462Z,19.43
2018-05-18T08:07:44.913Z,20.87
2018-05-18T08:10:13.125Z,20.10
2018-05-18T08:12:40.562Z,20.40
2018-05-18T08:15:08.825Z,19.90
2018-05-18T08:17:36.242Z,21.33
2018-05-18T08:20:03.696Z,18.40
2018-05-18T08:22:31.137Z,20.77
2018-05-18T08:24:58.581Z,19.63
2018-05-18T08:27:26.021Z,18.30
2018-05-18T08:29:53.473Z,19.53
2018-05-18T08:35:11.934Z,20.60
2018-05-18T08:37:39.374Z,19.60
2018-05-18T08:40:07.204Z,20.77
2018-05-18T08:42:35.409Z,21.33
2018-05-18T08:45:03.637Z,21.00
2018-05-18T08:47:31.078Z,22.00
2018-05-18T08:49:58.532Z,23.40
2018-05-18T08:52:25.976Z,19.80
2018-05-18T08:54:53.416Z,17.93
2018-05-18T08:57:20.866Z,19.50
2018-05-18T08:59:48.330Z,19.80
2018-05-18T09:02:15.763Z,18.20
2018-05-18T09:04:46.988Z,19.77
2018-05-18T09:07:14.807Z,21.20
2018-05-18T09:09:42.377Z,19.33
2018-05-18T09:12:10.954Z,19.27
2018-05-18T09:14:38.397Z,19.13
2018-05-18T09:17:06.614Z,18.90
2018-05-18T09:19:34.048Z,18.73
2018-05-18T09:22:02.273Z,17.20
2018-05-18T09:24:29.721Z,18.33
2018-05-18T09:26:57.169Z,18.07
2018-05-18T09:29:25.739Z,18.40
2018-05-18T09:31:53.184Z,19.97
2018-05-18T09:34:20.678Z,18.13
2018-05-18T09:36:48.064Z,17.93
2018-05-18T09:39:17.013Z,20.03
2018-05-18T09:41:44.462Z,19.10
2018-05-18T09:44:11.895Z,17.40
2018-05-18T09:46:40.938Z,17.97
2018-05-18T09:49:08.381Z,19.83
2018-05-18T09:51:35.838Z,20.47
2018-05-18T09:54:04.076Z,20.93
2018-05-18T09:56:31.503Z,19.67
2018-05-18T09:58:59.709Z,18.60
2018-05-18T10:01:43.812Z,18.50
2018-05-18T10:04:15.285Z,20.03
2018-05-18T10:06:42.739Z,20.27
2018-05-18T10:09:11.340Z,18.93
2018-05-18T10:11:41.131Z,13.30
2018-05-18T10:14:08.687Z,13.03
2018-05-18T10:16:41.718Z,13.00
2018-05-18T10:19:10.283Z,11.50
2018-05-18T10:21:39.739Z,11.50
2018-05-18T10:24:10.140Z,12.70
2018-05-18T10:26:38.757Z,12.00
2018-05-18T10:29:06.966Z,10.87
2018-05-18T10:31:35.191Z,10.30
2018-05-18T10:34:03.410Z,11.07
2018-05-18T10:36:32.196Z,9.53
2018-05-18T10:38:59.640Z,10.43
2018-05-18T10:41:27.080Z,10.67
2018-05-18T10:43:54.515Z,9.33
2018-05-18T10:46:21.944Z,9.80
2018-05-18T10:48:49.385Z,9.87
2018-05-18T10:51:17.230Z,9.80
2018-05-18T10:53:44.684Z,9.37
2018-05-18T10:56:12.132Z,10.83
2018-05-18T10:58:40.431Z,8.77
2018-05-18T11:01:07.787Z,7.20
2018-05-18T11:03:35.240Z,10.67
2018-05-18T11:06:03.440Z,10.13
2018-05-18T11:08:30.892Z,8.60
2018-05-18T11:10:59.085Z,9.47
2018-05-18T11:13:26.523Z,8.57
2018-05-18T11:15:54.728Z,8.47
2018-05-18T11:18:22.168Z,9.60
2018-05-18T11:20:51.109Z,10.23
2018-05-18T11:23:18.566Z,8.90
2018-05-18T11:25:46.776Z,8.90
2018-05-18T11:28:14.217Z,8.20
2018-05-18T11:30:42.053Z,8.43
2018-05-18T11:33:10.363Z,8.60
2018-05-18T11:35:37.733Z,8.13
2018-05-18T11:38:05.940Z,7.67
2018-05-18T11:40:34.148Z,6.77
2018-05-18T11:43:01.607Z,6.40
2018-05-18T11:45:29.086Z,6.03
2018-05-18T11:47:57.314Z,6.10
2018-05-18T11:50:24.698Z,7.23
2018-05-18T11:52:53.364Z,5.60
2018-05-18T11:55:21.473Z,8.87
2018-05-18T11:57:49.680Z,6.03
2018-05-18T12:00:17.109Z,6.40
2018-05-18T12:02:44.623Z,7.03
2018-05-18T12:05:12.001Z,7.50
2018-05-18T12:07:40.780Z,7.27
2018-05-18T12:10:08.229Z,6.63
2018-05-18T12:12:36.428Z,6.53
2018-05-18T12:15:04.629Z,5.90
2018-05-18T12:17:32.060Z,7.10
2018-05-18T12:19:59.488Z,5.83
2018-05-18T12:22:26.921Z,6.63
2018-05-18T12:24:54.361Z,6.40
2018-05-18T12:27:21.792Z,6.10
2018-05-18T12:29:49.641Z,6.03
2018-05-18T12:32:17.072Z,6.90
2018-05-18T12:34:44.508Z,7.23
2018-05-18T12:37:11.954Z,6.10
2018-05-18T12:39:39.411Z,7.70
2018-05-18T12:42:06.860Z,6.27
2018-05-18T12:44:34.734Z,6.53
2018-05-18T12:47:02.540Z,4.87
2018-05-18T12:49:29.963Z,5.70
2018-05-18T12:51:58.545Z,6.40
2018-05-18T12:54:25.985Z,6.03
2018-05-18T12:56:53.422Z,6.43
2018-05-18T12:59:20.898Z,5.97
2018-05-18T13:01:49.093Z,5.90
2018-05-18T13:04:16.535Z,3.80
2018-05-18T13:06:45.390Z,5.97
2018-05-18T13:09:13.626Z,4.80
2018-05-18T13:11:41.854Z,6.63
2018-05-18T13:14:09.321Z,5.77
2018-05-18T13:16:37.186Z,4.73
2018-05-18T13:19:05.417Z,5.07
2018-05-18T13:21:32.874Z,5.47
2018-05-18T13:24:00.719Z,5.83
2018-05-18T13:26:28.925Z,6.97
2018-05-18T13:28:57.512Z,4.77
2018-05-18T13:31:24.945Z,4.60
2018-05-18T13:33:52.392Z,5.20
2018-05-18T13:36:20.589Z,5.77
2018-05-18T13:38:48.103Z,5.17
2018-05-18T13:41:16.244Z,6.30
2018-05-18T13:43:44.073Z,5.00
2018-05-18T13:46:11.540Z,5.50
2018-05-18T13:48:39.750Z,6.00
2018-05-18T13:51:07.963Z,5.17
2018-05-18T13:53:36.527Z,4.80
2018-05-18T13:56:03.996Z,4.67
2018-05-18T13:58:32.635Z,4.87
2018-05-18T14:01:00.069Z,4.23
2018-05-18T14:03:28.274Z,5.47
2018-05-18T14:05:56.124Z,4.47
2018-05-18T14:08:24.343Z,5.67
2018-05-18T14:10:51.810Z,4.83
2018-05-18T14:13:20.054Z,4.80
2018-05-18T14:15:47.501Z,6.50
2018-05-18T14:18:14.936Z,5.57
2018-05-18T14:20:42.379Z,4.77
2018-05-18T14:23:10.581Z,5.13
2018-05-18T14:25:38.012Z,3.97
2018-05-18T14:28:05.448Z,4.37
2018-05-18T14:30:32.888Z,4.07
2018-05-18T14:33:00.324Z,5.43
2018-05-18T14:35:28.524Z,4.77
2018-05-18T14:37:55.995Z,4.70
2018-05-18T14:40:23.391Z,5.73
2018-05-18T14:42:50.841Z,4.40
2018-05-18T14:45:18.279Z,5.10
2018-05-18T14:47:45.708Z,6.00
2018-05-18T14:50:13.186Z,4.93
2018-05-18T14:52:41.016Z,4.63
2018-05-18T14:55:08.461Z,4.73
2018-05-18T14:57:36.658Z,4.47
2018-05-18T15:00:04.096Z,5.00
2018-05-18T15:02:31.525Z,5.13
2018-05-18T15:04:58.980Z,4.50
2018-05-18T15:07:26.411Z,4.57
2018-05-18T15:09:54.611Z,4.73
2018-05-18T15:12:22.051Z,6.60
2018-05-18T15:14:49.501Z,5.40
2018-05-18T15:17:17.693Z,5.93
2018-05-18T15:19:45.131Z,5.20
2018-05-18T15:22:12.593Z,6.07
2018-05-18T15:24:40.030Z,4.67
2018-05-18T15:27:08.237Z,4.60
2018-05-18T15:29:35.678Z,4.67
2018-05-18T15:32:03.887Z,5.53
2018-05-18T15:34:31.319Z,5.00
2018-05-18T15:36:59.159Z,4.70
2018-05-18T15:39:26.593Z,3.87
2018-05-18T15:41:54.024Z,5.50
2018-05-18T15:44:21.463Z,5.00
2018-05-18T15:46:50.256Z,5.03
2018-05-18T15:49:17.869Z,5.47
2018-05-18T15:51:45.245Z,5.13
2018-05-18T15:54:13.446Z,5.07
2018-05-18T15:56:41.645Z,6.63
2018-05-18T15:59:09.847Z,5.40
2018-05-18T16:01:37.280Z,6.00
2018-05-18T16:04:05.496Z,6.07
2018-05-18T16:06:32.935Z,5.97
2018-05-18T16:09:01.133Z,6.97
2018-05-18T16:11:28.589Z,5.53
2018-05-18T16:13:56.028Z,6.20
2018-05-18T16:16:23.452Z,6.60
2018-05-18T16:18:50.888Z,7.50
2018-05-18T16:21:19.092Z,5.70
2018-05-18T16:23:46.532Z,5.80
2018-05-18T16:26:14.733Z,5.40
2018-05-18T16:28:42.156Z,7.17
2018-05-18T16:31:09.598Z,6.20
2018-05-18T16:33:37.117Z,5.40
2018-05-18T16:36:05.245Z,5.10
2018-05-18T16:38:32.700Z,5.90
2018-05-18T16:41:00.144Z,4.93
2018-05-18T16:43:28.348Z,6.17
2018-05-18T16:45:55.781Z,5.47
2018-05-18T16:48:23.241Z,6.33
2018-05-18T16:50:50.690Z,6.23
2018-05-18T16:53:18.127Z,6.20
2018-05-18T16:55:46.382Z,6.60
2018-05-18T16:58:13.781Z,6.10
2018-05-18T17:00:41.230Z,5.73
2018-05-18T17:03:08.686Z,5.80
2018-05-18T17:05:36.884Z,6.17
2018-05-18T17:08:05.108Z,6.83
2018-05-18T17:10:32.549Z,6.63
2018-05-18T17:12:59.986Z,6.27
2018-05-18T17:15:28.197Z,6.67
2018-05-18T17:17:55.644Z,5.97
2018-05-18T17:20:23.070Z,5.90
2018-05-18T17:22:50.519Z,5.13
2018-05-18T17:25:18.729Z,5.57
2018-05-18T17:27:46.259Z,5.27
2018-05-18T17:30:14.441Z,4.80
2018-05-18T17:32:42.652Z,5.03
2018-05-18T17:35:10.468Z,4.70
2018-05-18T17:37:37.912Z,5.13
2018-05-18T17:40:05.350Z,5.20
2018-05-18T17:42:32.799Z,4.57
2018-05-18T17:45:01.016Z,4.30
2018-05-18T17:47:28.468Z,4.20
2018-05-18T17:49:55.934Z,4.63
2018-05-18T17:52:23.377Z,4.40
2018-05-18T17:54:51.581Z,5.80
2018-05-18T17:57:19.020Z,5.20
2018-05-18T17:59:47.262Z,6.33
2018-05-18T18:02:14.704Z,4.67
2018-05-18T18:04:42.149Z,5.10
2018-05-18T18:07:10.384Z,4.23
2018-05-18T18:09:37.822Z,4.80
2018-05-18T18:12:05.258Z,4.83
2018-05-18T18:14:32.691Z,5.60
2018-05-18T18:17:00.147Z,4.80
2018-05-18T18:19:27.609Z,4.97
2018-05-18T18:21:55.444Z,6.80
2018-05-18T18:24:23.646Z,5.67
2018-05-18T18:26:51.853Z,4.57
2018-05-18T18:29:19.301Z,5.23
2018-05-18T18:31:47.290Z,5.17
2018-05-18T18:34:14.728Z,5.77
2018-05-18T18:36:42.556Z,4.73
2018-05-18T18:39:10.003Z,5.93
2018-05-18T18:41:38.780Z,4.30
2018-05-18T18:44:06.984Z,4.93
2018-05-18T18:46:34.432Z,5.60
2018-05-18T18:49:02.270Z,4.33
2018-05-18T18:51:29.700Z,4.80
2018-05-18T18:53:57.154Z,4.70
2018-05-18T18:56:24.593Z,4.50
2018-05-18T18:58:52.168Z,5.07
2018-05-18T19:01:20.276Z,4.70
2018-05-18T19:03:47.715Z,4.27
2018-05-18T19:06:15.183Z,4.63
2018-05-18T19:08:42.628Z,4.47
2018-05-18T19:11:10.065Z,5.20
2018-05-18T19:13:37.518Z,5.50
2018-05-18T19:16:04.959Z,4.37
2018-05-18T19:18:32.432Z,4.83
2018-05-18T19:20:59.868Z,5.50
2018-05-18T19:23:27.664Z,5.20
2018-05-18T19:25:55.092Z,6.20
2018-05-18T19:28:22.583Z,5.00
2018-05-18T19:30:50.429Z,5.40
2018-05-18T19:33:18.996Z,4.70
2018-05-18T19:35:46.432Z,5.17
2018-05-18T19:38:13.871Z,6.10
2018-05-18T19:40:41.333Z,5.83
2018-05-18T19:43:08.819Z,5.67
2018-05-18T19:45:36.261Z,4.93
2018-05-18T19:48:03.760Z,5.13
2018-05-18T19:50:31.223Z,5.07
2018-05-18T19:52:59.004Z,5.60
2018-05-18T19:55:26.428Z,5.60
2018-05-18T19:57:53.884Z,5.13
2018-05-18T20:00:21.732Z,4.63
2018-05-18T20:02:49.168Z,5.83
2018-05-18T20:05:16.613Z,5.53
2018-05-18T20:07:44.062Z,5.00
2018-05-18T20:10:12.312Z,6.07
2018-05-18T20:12:39.750Z,5.03
2018-05-18T20:15:07.959Z,5.63
2018-05-18T20:17:35.395Z,5.17
2018-05-18T20:20:02.853Z,5.50
2018-05-18T20:22:31.069Z,6.00
2018-05-18T20:24:58.540Z,6.57
2018-05-18T20:27:25.948Z,5.43
2018-05-18T20:29:54.160Z,4.70
2018-05-18T20:32:21.589Z,5.00
2018-05-18T20:34:49.028Z,6.07
2018-05-18T20:37:17.233Z,5.40
2018-05-18T20:39:44.674Z,5.13
2018-05-18T20:42:12.111Z,4.97
2018-05-18T20:44:40.693Z,5.23
2018-05-18T20:47:08.904Z,5.63
2018-05-18T20:49:36.344Z,4.40
2018-05-18T20:52:04.556Z,5.70
2018-05-18T20:54:32.000Z,4.90
2018-05-18T20:57:00.260Z,5.90
2018-05-18T20:59:27.692Z,4.27
2018-05-18T21:01:55.142Z,5.00
2018-05-18T21:04:22.982Z,5.27
2018-05-18T21:06:51.194Z,5.77
2018-05-18T21:09:18.656Z,17.03
2018-05-18T21:11:46.110Z,13.40
2018-05-18T21:14:14.320Z,13.33
2018-05-18T21:16:41.760Z,13.40
2018-05-18T21:19:09.980Z,11.77
2018-05-18T21:21:37.852Z,10.30
2018-05-18T21:24:05.281Z,7.23
2018-05-18T21:26:32.716Z,6.97
2018-05-18T21:29:00.158Z,6.37
2018-05-18T21:31:27.616Z,6.50
2018-05-18T21:33:55.062Z,6.73
2018-05-18T21:36:23.288Z,6.37
2018-05-18T21:38:50.708Z,7.37
2018-05-18T21:41:18.180Z,6.97
2018-05-18T21:43:45.590Z,6.33
2018-05-18T21:46:13.014Z,6.87
2018-05-18T21:48:41.228Z,7.87
2018-05-18T21:51:08.663Z,6.47
2018-05-18T21:53:36.881Z,7.57
2018-05-18T21:56:04.716Z,8.50
2018-05-18T21:58:32.177Z,6.47
2018-05-18T22:01:00.005Z,5.77
2018-05-18T22:03:27.839Z,7.40
2018-05-18T22:05:55.287Z,6.90
2018-05-18T22:08:23.529Z,6.40
2018-05-18T22:10:50.972Z,7.73
2018-05-18T22:13:19.191Z,6.97
2018-05-18T22:15:46.620Z,6.27
2018-05-18T22:18:14.819Z,6.93
2018-05-18T22:20:43.400Z,6.30
2018-05-18T22:23:10.844Z,6.20
2018-05-18T22:25:38.283Z,9.63
2018-05-18T22:28:07.073Z,12.20
2018-05-18T22:30:34.515Z,10.90
2018-05-18T22:33:02.721Z,10.63
2018-05-18T22:35:30.201Z,11.17
2018-05-18T22:37:57.640Z,17.90
2018-05-18T22:40:25.867Z,14.67
2018-05-18T22:42:54.660Z,11.63
2018-05-18T22:45:22.216Z,11.07
2018-05-18T22:47:49.660Z,12.27
2018-05-18T22:50:18.604Z,9.83
2018-05-18T22:52:46.052Z,13.60
2018-05-18T22:55:13.499Z,13.17
2018-05-18T22:57:41.711Z,11.80
2018-05-18T23:00:09.152Z,13.27
2018-05-18T23:02:37.382Z,8.97
2018-05-18T23:05:05.948Z,7.03
2018-05-18T23:07:33.791Z,7.77
2018-05-18T23:10:01.247Z,8.50
2018-05-18T23:12:28.685Z,9.30
2018-05-18T23:14:56.127Z,7.70
2018-05-18T23:17:23.570Z,8.23
2018-05-18T23:19:51.781Z,6.60
2018-05-18T23:22:19.211Z,7.40
2018-05-18T23:24:46.649Z,7.80
2018-05-18T23:27:14.092Z,6.80
2018-05-18T23:29:41.537Z,9.30
2018-05-18T23:32:09.376Z,8.27
2018-05-18T23:34:36.813Z,8.33
2018-05-18T23:37:04.649Z,7.50
2018-05-18T23:39:33.598Z,7.97
2018-05-18T23:42:01.788Z,9.10
2018-05-18T23:44:29.237Z,7.70
2018-05-18T23:46:56.672Z,7.90
2018-05-18T23:49:24.883Z,8.20
2018-05-18T23:51:52.715Z,8.60
2018-05-18T23:54:20.148Z,8.43
2018-05-18T23:56:47.592Z,8.50
2018-05-18T23:59:15.046Z,8.63
